Time;durP1;ratioP1;P1;durP2;ratioP2;P2;SDS_P1;SDS_P2;PMS_P1;PMS_P2;Temp;Humidity;BMP_temperature;BMP_pressure;BME280_temperature;BME280_humidity;BME280_pressure;Samples;Min_cycle;Max_cycle;Signal;HPM_P1;HPM_P2
2022/08/26 00:01:36;;;;;;;29.55;6.00;;;;;;;24.38;47.44;96273.22;5025031;28;20060;-68
2022/08/26 00:04:03;;;;;;;28.17;6.10;;;;;;;24.80;47.75;96320.06;5025044;28;20566;-66
2022/08/26 00:06:32;;;;;;;32.53;5.97;;;;;;;25.00;47.50;96331.59;5022676;28;20511;-68
2022/08/26 00:08:59;;;;;;;25.50;6.07;;;;;;;24.87;46.34;96302.72;5024824;28;20049;-68
2022/08/26 00:11:26;;;;;;;41.67;6.40;;;;;;;25.21;44.76;96324.81;5024540;28;20053;-67
2022/08/26 00:13:54;;;;;;;29.33;6.15;;;;;;;25.21;44.66;96313.47;5025232;28;20562;-68
2022/08/26 00:16:23;;;;;;;28.92;5.72;;;;;;;25.31;45.37;96308.50;5024694;28;20559;-67
2022/08/26 00:18:51;;;;;;;34.33;5.75;;;;;;;25.11;44.49;96263.81;5023639;28;20073;-66
2022/08/26 00:21:19;;;;;;;28.25;5.70;;;;;;;25.44;45.32;96309.06;5022851;28;20056;-67
2022/08/26 00:23:46;;;;;;;31.50;5.55;;;;;;;25.52;45.18;96320.81;5023083;28;20096;-68
2022/08/26 00:26:13;;;;;;;32.97;5.82;;;;;;;25.23;45.73;96281.78;5026854;28;20053;-68
2022/08/26 00:28:40;;;;;;;27.17;5.40;;;;;;;25.47;44.13;96312.97;5027337;28;20057;-68
2022/08/26 00:31:07;;;;;;;37.13;5.43;;;;;;;25.32;44.78;96285.34;5028446;28;20111;-68
2022/08/26 00:33:37;;;;;;;29.98;5.18;;;;;;;25.28;45.14;96256.41;5028353;28;20061;-68
2022/08/26 00:36:05;;;;;;;39.70;5.95;;;;;;;25.51;45.03;96320.06;5027893;28;20119;-68
2022/08/26 00:38:34;;;;;;;36.80;6.65;;;;;;;25.55;44.42;96320.63;5028591;28;20478;-69
2022/08/26 00:41:04;;;;;;;45.70;6.38;;;;;;;25.50;44.32;96323.38;5018065;28;20053;-67
2022/08/26 00:43:33;;;;;;;36.03;7.22;;;;;;;25.39;43.23;96328.81;5008497;28;20053;-67
2022/08/26 00:46:19;;;;;;;43.42;5.90;;;;;;;25.40;43.40;96324.72;5008453;28;20050;-67
2022/08/26 00:48:49;;;;;;;33.43;5.80;;;;;;;25.43;43.40;96323.72;5008269;28;20499;-68
2022/08/26 00:51:19;;;;;;;38.80;6.68;;;;;;;25.34;43.32;96326.66;5008457;28;20050;-66
2022/08/26 00:54:06;;;;;;;31.73;6.05;;;;;;;24.94;42.92;96279.66;5007148;28;20061;-67
2022/08/26 00:56:45;;;;;;;34.72;5.70;;;;;;;25.30;42.96;96330.44;5008405;28;20774;-68
2022/08/26 00:59:15;;;;;;;22.95;5.28;;;;;;;25.30;42.52;96338.94;5007166;28;20152;-68
2022/08/26 01:01:43;;;;;;;29.08;5.28;;;;;;;25.29;42.62;96337.34;5008541;28;20057;-68
2022/08/26 01:04:18;;;;;;;29.67;5.90;;;;;;;24.75;42.94;96246.28;5008164;28;20057;-68
2022/08/26 01:06:46;;;;;;;32.45;6.43;;;;;;;25.27;42.88;96328.56;5007214;28;20479;-67
2022/08/26 01:09:15;;;;;;;26.35;5.70;;;;;;;25.24;42.83;96329.50;5007926;28;20053;-68
2022/08/26 01:11:42;;;;;;;33.20;5.18;;;;;;;25.25;42.71;96336.78;5006335;28;20050;-67
2022/08/26 01:14:11;;;;;;;29.95;5.82;;;;;;;25.34;42.95;96338.00;5008097;28;20052;-67
2022/08/26 01:16:38;;;;;;;27.08;5.63;;;;;;;25.32;42.04;96336.38;5007955;28;20046;-68
2022/08/26 01:19:22;;;;;;;39.45;6.03;;;;;;;25.18;42.44;96303.09;5007967;28;20436;-68
2022/08/26 01:21:56;;;;;;;29.00;4.85;;;;;;;25.10;42.50;96290.56;5008146;28;20483;-67
2022/08/26 01:24:27;;;;;;;31.73;4.70;;;;;;;24.91;41.53;96265.69;5007754;28;20080;-67
2022/08/26 01:27:00;;;;;;;29.73;4.78;;;;;;;25.52;41.16;96337.81;5006333;28;20068;-67
2022/08/26 01:29:28;;;;;;;29.30;5.95;;;;;;;25.49;41.93;96338.81;5006921;28;20445;-69
2022/08/26 01:31:56;;;;;;;21.48;5.78;;;;;;;25.44;42.16;96336.63;5007549;28;20057;-67
2022/08/26 01:34:30;;;;;;;21.98;5.30;;;;;;;25.46;42.24;96329.22;5007382;28;20057;-68
2022/08/26 01:37:17;;;;;;;21.42;4.97;;;;;;;25.35;42.09;96328.22;5005633;28;20066;-67
2022/08/26 01:39:47;;;;;;;29.20;5.75;;;;;;;25.35;41.70;96328.22;5007436;28;20117;-68
2022/08/26 01:42:17;;;;;;;17.73;4.35;;;;;;;25.32;42.05;96325.03;5006179;28;20062;-68
2022/08/26 01:44:52;;;;;;;29.08;5.93;;;;;;;25.32;41.93;96330.72;5006927;28;20050;-68
2022/08/26 01:47:21;;;;;;;22.75;5.10;;;;;;;25.28;42.12;96323.66;5007070;28;20062;-67
2022/08/26 01:49:51;;;;;;;35.38;5.95;;;;;;;25.21;41.91;96310.63;5006764;28;20057;-68
2022/08/26 01:52:23;;;;;;;27.33;4.93;;;;;;;25.38;42.15;96327.25;5006669;28;20049;-68
2022/08/26 01:54:55;;;;;;;27.55;5.90;;;;;;;25.23;42.85;96305.28;5007146;28;20128;-68
2022/08/26 01:57:23;;;;;;;26.65;5.28;;;;;;;25.22;42.66;96314.25;5006866;28;20131;-68
2022/08/26 01:59:54;;;;;;;32.53;4.80;;;;;;;25.21;42.72;96307.81;5007081;28;20141;-66
2022/08/26 02:02:22;;;;;;;34.72;5.93;;;;;;;24.84;43.22;96255.50;5006781;28;20050;-66
2022/08/26 02:05:03;;;;;;;29.60;4.50;;;;;;;25.12;42.87;96305.03;5005112;28;20511;-68
2022/08/26 02:07:32;;;;;;;19.58;4.85;;;;;;;25.11;43.19;96308.38;5006853;28;20053;-68
2022/08/26 02:09:59;;;;;;;17.38;4.88;;;;;;;24.93;41.82;96258.25;5021405;28;20058;-66
2022/08/26 02:12:26;;;;;;;35.58;5.43;;;;;;;24.91;42.61;96260.78;5006417;28;20500;-66
2022/08/26 02:14:56;;;;;;;19.95;5.45;;;;;;;25.23;42.49;96307.31;5006652;28;20409;-66
2022/08/26 02:17:29;;;;;;;28.67;5.80;;;;;;;24.95;43.00;96277.63;5006637;28;20528;-66
2022/08/26 02:19:56;;;;;;;20.40;4.25;;;;;;;25.07;43.31;96302.88;5006559;28;20286;-67
2022/08/26 02:22:23;;;;;;;31.92;5.35;;;;;;;24.98;41.33;96282.31;5006346;28;20102;-66
2022/08/26 02:25:06;;;;;;;29.83;4.60;;;;;;;25.16;41.04;96293.53;5006113;28;20057;-67
2022/08/26 02:27:35;;;;;;;25.90;4.65;;;;;;;25.20;41.01;96289.22;5005201;28;20141;-66
2022/08/26 02:30:10;;;;;;;13.25;4.18;;;;;;;25.24;41.22;96301.16;5021164;28;20069;-65
2022/08/26 02:32:38;;;;;;;17.42;4.45;;;;;;;25.24;41.23;96284.16;5005998;28;20414;-66
2022/08/26 02:35:09;;;;;;;28.88;4.88;;;;;;;25.26;41.33;96290.13;5004922;28;20050;-66
2022/08/26 02:37:36;;;;;;;21.20;5.00;;;;;;;25.29;41.19;96283.47;5004080;28;20057;-67
2022/08/26 02:40:05;;;;;;;19.70;4.63;;;;;;;25.45;40.32;96287.16;5007586;28;20482;-66
2022/08/26 02:42:32;;;;;;;35.35;5.45;;;;;;;25.34;39.88;96264.28;5025979;28;20459;-67
2022/08/26 02:44:59;;;;;;;38.30;6.70;;;;;;;25.71;39.65;96299.50;5025471;28;20543;-67
2022/08/26 02:47:26;;;;;;;27.67;7.40;;;;;;;25.39;39.36;96252.25;5025517;28;20531;-67
2022/08/26 02:49:54;;;;;;;19.52;5.03;;;;;;;25.65;39.50;96290.13;5023638;28;20056;-67
2022/08/26 02:52:21;;;;;;;23.30;6.25;;;;;;;25.54;39.51;96267.22;5025552;28;20057;-65
2022/08/26 02:54:48;;;;;;;33.95;5.25;;;;;;;25.77;39.44;96294.72;5025435;28;20057;-66
2022/08/26 02:57:15;;;;;;;21.75;4.95;;;;;;;25.73;39.25;96296.97;5025226;28;20069;-66
2022/08/26 02:59:42;;;;;;;21.77;4.68;;;;;;;25.66;39.37;96280.31;5025776;28;20135;-66
2022/08/26 03:02:10;;;;;;;27.80;4.95;;;;;;;25.70;39.67;96275.25;5025819;28;20110;-67
2022/08/26 03:04:38;;;;;;;18.58;5.63;;;;;;;25.20;41.10;96292.06;5025800;28;20081;-66
2022/08/26 03:07:05;;;;;;;33.38;6.10;;;;;;;25.32;41.40;96293.84;5025974;28;20060;-66
2022/08/26 03:09:32;;;;;;;22.05;5.15;;;;;;;25.36;40.92;96302.19;5025294;28;20519;-67
2022/08/26 03:11:59;;;;;;;20.48;4.85;;;;;;;25.42;40.97;96310.84;5025337;28;20053;-66
2022/08/26 03:14:25;;;;;;;19.48;4.60;;;;;;;25.26;41.03;96307.13;5024967;28;20053;-66
2022/08/26 03:16:53;;;;;;;27.60;5.93;;;;;;;24.94;43.33;96299.50;5023745;28;20053;-68
2022/08/26 03:19:23;;;;;;;21.30;4.72;;;;;;;24.49;43.26;96293.28;5025133;28;20045;-67
2022/08/26 03:21:52;;;;;;;31.38;4.75;;;;;;;24.66;44.25;96298.09;5025296;28;20141;-67
2022/08/26 03:24:24;;;;;;;23.05;5.07;;;;;;;24.23;45.83;96306.34;5024855;28;20599;-67
2022/08/26 03:26:51;;;;;;;25.75;5.05;;;;;;;23.70;45.13;96269.22;5025165;28;20056;-67
2022/08/26 03:32:05;;;;;;;23.20;4.68;;;;;;;24.52;43.57;96298.78;5024657;28;20045;-67
2022/08/26 03:34:32;;;;;;;27.25;5.38;;;;;;;24.68;43.10;96292.75;5025121;28;20056;-66
2022/08/26 03:37:00;;;;;;;24.27;4.93;;;;;;;24.79;42.69;96298.66;5024012;28;20062;-66
2022/08/26 03:39:27;;;;;;;32.65;5.97;;;;;;;24.85;42.33;96290.31;5025026;28;20061;-67
2022/08/26 03:41:57;;;;;;;30.33;6.05;;;;;;;24.85;41.59;96291.06;5008603;28;20478;-67
2022/08/26 03:44:25;;;;;;;20.98;5.93;;;;;;;24.99;42.87;96301.66;5004963;28;20542;-66
2022/08/26 03:46:53;;;;;;;30.15;5.45;;;;;;;24.44;41.69;96248.69;5004816;28;20056;-67
2022/08/26 03:49:20;;;;;;;39.20;5.80;;;;;;;24.72;41.71;96259.34;5004773;28;20058;-67
2022/08/26 03:51:47;;;;;;;30.13;6.60;;;;;;;24.95;41.75;96298.25;5005046;28;20782;-68
2022/08/26 03:54:15;;;;;;;34.47;6.00;;;;;;;25.04;41.05;96291.72;5003976;28;20060;-67
2022/08/26 03:56:42;;;;;;;24.13;4.43;;;;;;;25.07;40.67;96331.22;5004979;28;20050;-67
2022/08/26 03:59:12;;;;;;;18.25;4.30;;;;;;;25.21;40.42;96285.13;5004639;28;20520;-67
2022/08/26 04:01:39;;;;;;;18.92;3.80;;;;;;;25.24;40.28;96295.47;5007788;28;20053;-66
2022/08/26 04:04:06;;;;;;;25.67;6.07;;;;;;;25.20;41.23;96294.09;5008901;28;20586;-65
2022/08/26 04:06:41;;;;;;;24.13;5.63;;;;;;;25.06;40.96;96295.66;5007190;28;20057;-69
2022/08/26 04:09:17;;;;;;;29.17;6.05;;;;;;;24.76;41.34;96245.00;5008886;28;20057;-69
2022/08/26 04:11:45;;;;;;;30.88;6.57;;;;;;;24.80;41.37;96246.38;5008874;28;20060;-67
2022/08/26 04:14:19;;;;;;;24.42;6.20;;;;;;;25.17;41.58;96297.91;5008743;28;20050;-66
2022/08/26 04:16:47;;;;;;;19.70;5.10;;;;;;;25.21;40.93;96268.09;5007391;28;20627;-66
2022/08/26 04:19:15;;;;;;;24.80;5.50;;;;;;;24.81;41.39;96233.81;5008572;28;20057;-66
2022/08/26 04:21:43;;;;;;;23.55;6.00;;;;;;;25.18;41.40;96291.75;5008328;28;20133;-66
2022/08/26 04:24:14;;;;;;;25.25;4.80;;;;;;;25.30;40.42;96287.91;5008620;28;20409;-66
2022/08/26 04:26:42;;;;;;;26.77;4.90;;;;;;;25.46;41.00;96294.41;5008403;28;20496;-66
2022/08/26 04:29:18;;;;;;;20.38;4.30;;;;;;;25.50;40.41;96295.00;5006920;28;20097;-67
2022/08/26 04:31:46;;;;;;;22.15;5.28;;;;;;;25.46;40.74;96294.41;5008432;28;20057;-67
2022/08/26 04:34:15;;;;;;;21.65;4.85;;;;;;;25.51;40.88;96290.88;5008429;28;20115;-66
2022/08/26 04:36:43;;;;;;;21.42;5.22;;;;;;;25.36;40.75;96298.56;5006393;28;20089;-66
2022/08/26 04:39:11;;;;;;;27.92;4.82;;;;;;;25.46;40.20;96297.22;5008485;28;20053;-66
2022/08/26 04:41:39;;;;;;;31.63;5.70;;;;;;;25.49;40.75;96302.72;5021838;28;20057;-67
2022/08/26 04:44:06;;;;;;;18.27;4.53;;;;;;;25.01;40.42;96208.44;5028517;28;20510;-67
2022/08/26 04:46:33;;;;;;;26.95;5.90;;;;;;;25.26;41.11;96244.75;5026567;28;20054;-68
2022/08/26 04:49:00;;;;;;;20.70;4.63;;;;;;;25.56;40.35;96295.88;5027634;28;20095;-66
2022/08/26 04:51:27;;;;;;;18.25;4.68;;;;;;;25.60;40.31;96287.97;5027980;28;20037;-67
2022/08/26 04:53:57;;;;;;;29.83;5.88;;;;;;;25.53;40.49;96282.69;5028003;28;20111;-67
2022/08/26 04:56:32;;;;;;;33.03;6.03;;;;;;;25.45;40.44;96281.50;5028055;28;20060;-66
2022/08/26 04:59:01;;;;;;;26.52;6.15;;;;;;;25.42;40.84;96288.16;5027440;28;20585;-65
2022/08/26 05:01:30;;;;;;;32.67;6.10;;;;;;;25.27;41.05;96254.84;5027832;28;20049;-66
2022/08/26 05:03:57;;;;;;;28.70;6.18;;;;;;;25.40;40.72;96290.69;5026301;28;20097;-66
2022/08/26 05:06:24;;;;;;;21.80;5.82;;;;;;;25.57;40.72;96294.59;5025945;28;20049;-65
2022/08/26 05:08:52;;;;;;;31.25;5.72;;;;;;;25.50;40.80;96312.03;5027418;28;20050;-65
2022/08/26 05:11:20;;;;;;;31.00;6.20;;;;;;;25.48;40.98;96280.53;5025820;28;20065;-66
2022/08/26 05:13:48;;;;;;;15.77;4.13;;;;;;;25.73;40.51;96308.31;5025265;28;20084;-66
2022/08/26 05:16:15;;;;;;;21.58;5.35;;;;;;;25.65;40.10;96293.75;5027075;28;20633;-66
2022/08/26 05:18:44;;;;;;;23.52;5.05;;;;;;;25.63;40.10;96298.31;5027310;28;20100;-65
2022/08/26 05:21:16;;;;;;;19.75;5.40;;;;;;;25.45;41.34;96307.03;5027447;28;20049;-66
2022/08/26 05:23:43;;;;;;;19.92;5.30;;;;;;;25.29;40.89;96279.88;5027250;28;20060;-67
2022/08/26 05:26:10;;;;;;;15.40;4.93;;;;;;;25.13;40.36;96244.22;5027023;28;20061;-65
2022/08/26 05:28:36;;;;;;;28.95;5.75;;;;;;;25.69;40.19;96279.38;5027191;28;20057;-66
2022/08/26 05:31:19;;;;;;;20.38;4.68;;;;;;;25.65;41.33;96301.47;5027325;28;20065;-66
2022/08/26 05:33:46;;;;;;;21.63;5.43;;;;;;;25.54;40.34;96306.94;5026902;28;20107;-66
2022/08/26 05:36:19;;;;;;;21.65;5.13;;;;;;;25.14;40.59;96248.66;5025251;28;20114;-66
2022/08/26 05:38:47;;;;;;;44.10;5.50;;;;;;;25.68;40.88;96328.88;5026936;28;20442;-65
2022/08/26 05:41:22;;;;;;;23.38;4.80;;;;;;;25.65;41.09;96329.84;5015068;28;20046;-65
2022/08/26 05:43:50;;;;;;;30.70;5.72;;;;;;;25.70;41.01;96321.44;5007256;28;20054;-64
2022/08/26 05:46:17;;;;;;;23.35;5.20;;;;;;;25.52;40.67;96281.09;5005033;28;20065;-65
2022/08/26 05:48:44;;;;;;;26.55;6.18;;;;;;;25.40;40.57;96256.66;5013190;28;20085;-68
2022/08/26 05:51:13;;;;;;;28.33;5.97;;;;;;;25.80;40.33;96330.66;5005303;28;20087;-67
2022/08/26 05:53:41;;;;;;;28.75;5.45;;;;;;;26.04;39.96;96323.63;5007288;28;20053;-67
2022/08/26 05:56:23;;;;;;;25.10;6.03;;;;;;;25.75;39.88;96288.78;5006932;28;20061;-65
2022/08/26 05:58:50;;;;;;;23.35;7.13;;;;;;;26.04;40.24;96337.81;5006659;28;20430;-62
2022/08/26 06:01:20;;;;;;;18.42;5.00;;;;;;;26.15;39.94;96340.06;5006447;28;20061;-66
2022/08/26 06:03:51;;;;;;;20.95;5.40;;;;;;;25.90;39.24;96289.53;5006832;28;20050;-65
2022/08/26 06:06:21;;;;;;;32.42;5.97;;;;;;;26.13;40.51;96348.31;5006322;28;20500;-67
2022/08/26 06:08:56;;;;;;;15.88;5.00;;;;;;;26.08;39.23;96346.16;5006742;28;20054;-68
2022/08/26 06:11:25;;;;;;;27.67;5.25;;;;;;;26.27;40.28;96353.97;5004835;28;20054;-67
2022/08/26 06:13:52;;;;;;;25.42;6.05;;;;;;;25.95;39.74;96312.34;5011347;28;20136;-66
2022/08/26 06:16:22;;;;;;;24.35;6.13;;;;;;;25.98;39.78;96324.78;5019042;28;20045;-66
2022/08/26 06:18:50;;;;;;;35.28;7.57;;;;;;;25.77;39.55;96315.38;5025154;28;20084;-62
2022/08/26 06:21:19;;;;;;;19.77;5.38;;;;;;;26.49;38.89;96364.94;5024040;28;20496;-62
2022/08/26 06:26:35;;;;;;;20.85;5.25;;;;;;;26.96;40.47;96381.72;5025823;28;20488;-69
2022/08/26 06:29:04;;;;;;;30.60;5.57;;;;;;;27.05;39.46;96364.53;5025874;28;20049;-63
2022/08/26 06:31:33;;;;;;;30.25;6.88;;;;;;;27.34;39.22;96367.28;5024403;28;20053;-66
2022/08/26 06:34:00;;;;;;;25.70;5.57;;;;;;;26.92;40.04;96238.97;5012873;28;20061;-64
2022/08/26 06:36:29;;;;;;;23.20;5.97;;;;;;;27.57;38.29;96374.03;5003622;28;20053;-60
2022/08/26 06:39:03;;;;;;;22.52;5.80;;;;;;;27.92;38.54;96377.56;5005899;28;20432;-71
2022/08/26 06:41:32;;;;;;;27.90;5.97;;;;;;;26.93;37.08;96194.28;5008538;28;20562;-62
2022/08/26 06:44:00;;;;;;;22.20;5.53;;;;;;;27.90;38.22;96392.31;5025886;28;20057;-69
2022/08/26 06:46:28;;;;;;;36.90;6.43;;;;;;;27.87;37.36;96350.59;5020350;28;20053;-60
2022/08/26 06:48:57;;;;;;;20.17;5.85;;;;;;;27.81;37.95;96388.81;5013311;28;20056;-62
2022/08/26 06:51:27;;;;;;;27.83;6.20;;;;;;;27.76;37.38;96390.31;5015720;28;20053;-63
2022/08/26 06:53:58;;;;;;;18.45;7.00;;;;;;;27.35;38.30;96390.81;5025528;28;20049;-68
2022/08/26 06:56:36;;;;;;;23.67;6.32;;;;;;;26.44;41.08;96340.84;5025352;28;20045;-72
2022/08/26 06:59:04;;;;;;;16.38;5.88;;;;;;;25.04;43.54;96275.50;5025154;28;20057;-59
2022/08/26 07:01:37;;;;;;;24.15;6.88;;;;;;;25.48;43.85;96389.09;5024618;28;20488;-58
2022/08/26 07:04:08;;;;;;;20.17;7.25;;;;;;;25.81;44.50;96406.00;5024928;28;20054;-70
2022/08/26 07:06:40;;;;;;;16.63;7.10;;;;;;;25.94;45.12;96387.41;5024237;28;20499;-67
2022/08/26 07:09:09;;;;;;;22.42;6.72;;;;;;;25.60;45.25;96393.72;5023312;28;20053;-65
2022/08/26 07:11:37;;;;;;;30.38;8.02;;;;;;;25.35;46.88;96427.47;5020897;28;20055;-66
2022/08/26 07:14:05;;;;;;;25.40;7.50;;;;;;;24.42;48.74;96319.91;5024211;28;20428;-72
2022/08/26 07:16:33;;;;;;;19.98;7.38;;;;;;;24.40;48.41;96366.97;5023193;28;20144;-69
2022/08/26 07:19:03;;;;;;;29.08;8.88;;;;;;;22.18;49.17;96032.41;5024892;28;20097;-60
2022/08/26 07:21:40;;;;;;;17.15;7.72;;;;;;;24.98;48.65;96407.81;5024174;28;20045;-62
2022/08/26 07:24:08;;;;;;;16.30;7.57;;;;;;;25.28;46.86;96409.53;5023269;28;20111;-59
2022/08/26 07:26:37;;;;;;;23.52;8.80;;;;;;;25.46;47.48;96408.66;5023858;28;20508;-62
2022/08/26 07:29:04;;;;;;;24.02;8.70;;;;;;;25.06;44.67;96363.69;5024686;28;20061;-60
2022/08/26 07:31:34;;;;;;;20.65;7.85;;;;;;;25.52;47.81;96422.94;5023109;28;20115;-58
2022/08/26 07:34:09;;;;;;;22.55;8.45;;;;;;;25.38;44.71;96369.78;5024718;28;20061;-59
2022/08/26 07:36:36;;;;;;;27.17;8.73;;;;;;;25.74;42.86;96423.38;5021196;28;20147;-65
2022/08/26 07:39:04;;;;;;;29.73;8.90;;;;;;;25.77;44.18;96408.22;5018431;28;20598;-63
2022/08/26 07:41:32;;;;;;;20.20;8.75;;;;;;;25.85;42.77;96389.56;5019358;28;20111;-59
2022/08/26 07:43:59;;;;;;;35.38;10.13;;;;;;;23.96;42.85;96078.00;5022834;28;20546;-61
2022/08/26 07:46:26;;;;;;;23.38;8.73;;;;;;;26.09;42.58;96404.50;5021075;28;20049;-60
2022/08/26 07:48:57;;;;;;;20.70;8.63;;;;;;;26.09;41.71;96398.81;5023054;28;20546;-64
2022/08/26 07:51:25;;;;;;;22.48;9.45;;;;;;;25.91;42.59;96396.13;5021687;28;20053;-59
2022/08/26 07:53:53;;;;;;;19.92;9.75;;;;;;;25.95;43.80;96359.81;5022844;28;20053;-59
2022/08/26 07:56:21;;;;;;;26.75;9.30;;;;;;;26.28;42.12;96395.31;5024555;28;20050;-59
2022/08/26 07:58:52;;;;;;;26.55;8.77;;;;;;;26.61;42.17;96400.78;5024184;28;20061;-66
2022/08/26 08:01:22;;;;;;;22.42;8.45;;;;;;;26.86;42.44;96408.69;5019523;28;20058;-68
2022/08/26 08:03:50;;;;;;;26.73;8.85;;;;;;;26.43;42.41;96321.47;5004827;28;20113;-74
2022/08/26 08:06:21;;;;;;;24.80;7.82;;;;;;;27.23;44.12;96412.63;5004907;28;20109;-73
2022/08/26 08:08:54;;;;;;;26.05;8.85;;;;;;;27.29;45.33;96416.34;5004451;28;20526;-71
2022/08/26 08:11:22;;;;;;;28.27;8.60;;;;;;;26.85;42.33;96353.13;5023835;28;20049;-67
2022/08/26 08:13:50;;;;;;;21.90;8.80;;;;;;;26.84;42.15;96405.59;5019094;28;20062;-73
2022/08/26 08:16:23;;;;;;;23.55;8.82;;;;;;;26.73;42.53;96385.47;5017414;28;20079;-62
2022/08/26 08:18:50;;;;;;;25.52;8.40;;;;;;;26.07;42.74;96253.72;5016356;28;20441;-62
2022/08/26 08:21:16;;;;;;;18.60;7.30;;;;;;;26.68;40.68;96383.38;5030428;28;20046;-66
2022/08/26 08:23:47;;;;;;;25.35;8.55;;;;;;;26.21;40.78;96335.25;5022809;28;20512;-69
2022/08/26 08:26:14;;;;;;;25.95;7.45;;;;;;;25.34;41.91;96286.94;5018622;28;20088;-65
2022/08/26 08:28:42;;;;;;;26.38;9.05;;;;;;;25.27;43.60;96288.06;5022273;28;20119;-66
2022/08/26 08:31:17;;;;;;;31.98;10.48;;;;;;;26.25;43.54;96401.97;5023075;28;20081;-60
2022/08/26 08:33:58;;;;;;;35.85;10.95;;;;;;;26.08;44.26;96402.94;5019704;28;20042;-70
2022/08/26 08:36:25;;;;;;;32.95;12.57;;;;;;;25.45;45.11;96417.63;5023387;28;20508;-64
2022/08/26 08:39:01;;;;;;;30.42;9.10;;;;;;;24.74;46.97;96338.97;5022487;28;21452;-60
2022/08/26 08:41:47;;;;;;;42.05;10.73;;;;;;;24.88;47.50;96343.94;5022956;28;20053;-66
2022/08/26 08:44:20;;;;;;;43.10;11.80;;;;;;;25.39;46.67;96419.56;5022286;28;20045;-75
2022/08/26 08:46:53;;;;;;;34.75;11.25;;;;;;;25.17;46.15;96375.25;5014557;28;20049;-58
2022/08/26 08:49:22;;;;;;;49.05;13.02;;;;;;;25.52;48.12;96454.13;5008138;28;20524;-60
2022/08/26 08:52:04;;;;;;;27.38;7.68;;;;;;;25.17;48.09;96416.97;5023081;28;20061;-64
2022/08/26 08:54:32;;;;;;;27.95;9.25;;;;;;;25.03;48.16;96364.66;5026845;28;20060;-59
2022/08/26 08:57:23;;;;;;;27.38;8.50;;;;;;;25.69;49.05;96449.63;5024430;28;20057;-60
2022/08/26 09:00:02;;;;;;;26.13;8.15;;;;;;;24.93;49.70;96365.16;5025964;28;20053;-62
2022/08/26 09:02:39;;;;;;;16.25;6.68;;;;;;;24.53;51.15;96362.66;5025324;28;20603;-69
2022/08/26 09:05:40;;;;;;;24.52;7.72;;;;;;;23.58;55.08;96256.81;5027538;28;20495;-63
2022/08/26 09:08:20;;;;;;;22.20;8.32;;;;;;;24.79;52.50;96434.66;5021712;28;20570;-60
2022/08/26 09:10:53;;;;;;;32.72;11.25;;;;;;;25.16;53.78;96457.94;5026757;28;20056;-63
2022/08/26 09:13:20;;;;;;;31.52;12.18;;;;;;;25.22;55.04;96451.16;5022080;28;20054;-59
2022/08/26 09:16:17;;;;;;;28.10;9.13;;;;;;;25.43;55.13;96454.19;5026658;28;20045;-60
2022/08/26 09:19:13;;;;;;;22.77;7.70;;;;;;;25.62;52.53;96455.66;5024815;28;20805;-68
2022/08/26 09:21:45;;;;;;;22.90;7.60;;;;;;;24.91;53.98;96337.31;5026529;28;20073;-62
2022/08/26 09:24:18;;;;;;;36.05;8.35;;;;;;;25.87;52.57;96419.03;5026833;28;20431;-71
2022/08/26 09:26:48;;;;;;;22.05;7.95;;;;;;;26.30;49.61;96455.22;5026981;28;20470;-71
2022/08/26 09:29:24;;;;;;;22.80;7.80;;;;;;;26.49;50.29;96461.53;5025403;28;20049;-72
2022/08/26 09:32:11;;;;;;;26.27;7.82;;;;;;;26.06;50.73;96405.47;5024518;28;20428;-65
2022/08/26 09:34:53;;;;;;;25.42;8.18;;;;;;;26.98;47.25;96453.09;5026633;28;20054;-59
2022/08/26 09:37:58;;;;;;;23.58;8.50;;;;;;;26.54;46.39;96372.78;5025980;28;20068;-62
2022/08/26 09:40:31;;;;;;;34.00;8.85;;;;;;;27.07;46.50;96450.13;4983945;28;20058;-60
2022/08/26 09:43:20;;;;;;;20.33;8.48;;;;;;;27.05;44.85;96452.66;4984344;28;20046;-68
2022/08/26 09:45:54;;;;;;;29.48;9.07;;;;;;;26.92;47.46;96452.19;5009056;28;20084;-61
2022/08/26 09:48:30;;;;;;;22.33;7.90;;;;;;;26.91;44.29;96456.31;5025739;28;20064;-63
2022/08/26 09:51:00;;;;;;;22.60;9.60;;;;;;;27.03;46.61;96460.91;5026158;28;20057;-61
2022/08/26 09:53:32;;;;;;;19.27;7.50;;;;;;;27.21;47.02;96457.03;5026432;28;20056;-66
2022/08/26 09:56:24;;;;;;;19.23;9.20;;;;;;;24.75;47.60;96085.59;5026186;28;20432;-61
2022/08/26 09:58:55;;;;;;;23.05;7.28;;;;;;;27.02;48.26;96436.59;5024869;28;20111;-69
2022/08/26 10:01:22;;;;;;;24.23;7.15;;;;;;;27.05;48.38;96435.59;5025511;28;20096;-61
2022/08/26 10:03:50;;;;;;;23.48;8.77;;;;;;;26.97;48.75;96391.81;5004879;28;20129;-61
2022/08/26 10:06:17;;;;;;;32.17;9.00;;;;;;;27.29;48.37;96444.81;5006393;28;20088;-58
2022/08/26 10:08:51;;;;;;;19.98;9.57;;;;;;;27.32;47.69;96415.34;5023808;28;20061;-59
2022/08/26 10:11:30;;;;;;;20.92;7.53;;;;;;;27.41;46.43;96426.59;5026221;28;20068;-66
2022/08/26 10:14:06;;;;;;;29.67;8.43;;;;;;;27.67;46.05;96413.25;5025875;28;20053;-66
2022/08/26 10:17:01;;;;;;;22.80;7.45;;;;;;;27.77;45.61;96388.25;5024536;28;20065;-61
2022/08/26 10:20:07;;;;;;;30.13;7.70;;;;;;;28.54;44.19;96419.66;5023794;28;20058;-63
2022/08/26 10:22:49;;;;;;;24.55;8.00;;;;;;;28.86;41.67;96415.56;5025802;28;20080;-60
2022/08/26 10:25:44;;;;;;;17.60;7.18;;;;;;;29.46;41.61;96400.94;5025918;28;20455;-60
2022/08/26 10:28:18;;;;;;;27.77;8.05;;;;;;;29.75;41.99;96403.41;5026025;28;20164;-60
2022/08/26 10:30:52;;;;;;;24.02;7.80;;;;;;;29.79;40.93;96401.13;5025711;28;20060;-71
2022/08/26 10:33:19;;;;;;;24.90;8.52;;;;;;;29.77;39.27;96403.69;5024500;28;20056;-66
2022/08/26 10:36:47;;;;;;;23.25;7.82;;;;;;;29.70;40.57;96364.22;5015021;28;20535;-68
2022/08/26 10:39:16;;;;;;;26.58;7.75;;;;;;;30.27;38.32;96395.31;5007096;28;20082;-60
2022/08/26 10:41:50;;;;;;;23.33;7.03;;;;;;;29.51;37.87;96317.41;5006291;28;20057;-59
2022/08/26 10:44:19;;;;;;;24.65;6.95;;;;;;;30.08;37.41;96389.25;5024344;28;20059;-59
2022/08/26 10:46:55;;;;;;;20.35;5.97;;;;;;;28.92;37.19;96256.66;5023292;28;20049;-64
2022/08/26 10:49:21;;;;;;;22.27;6.95;;;;;;;29.62;38.00;96397.38;5011254;28;20060;-73
2022/08/26 10:52:04;;;;;;;26.67;7.28;;;;;;;29.60;37.84;96382.84;5025567;28;20065;-62
2022/08/26 10:55:01;;;;;;;29.35;7.00;;;;;;;29.17;37.80;96270.03;5025326;28;20054;-67
2022/08/26 10:58:05;;;;;;;28.45;7.15;;;;;;;30.04;37.62;96383.00;5022767;28;20057;-73
2022/08/26 11:04:02;;;;;;;21.98;7.50;;;;;;;30.58;38.63;96384.44;5024154;28;20151;-68
2022/08/26 11:06:30;;;;;;;19.40;6.95;;;;;;;30.72;36.26;96380.53;5023258;28;20049;-68
2022/08/26 11:08:59;;;;;;;19.92;7.07;;;;;;;30.94;37.62;96346.22;5023512;28;20053;-65
2022/08/26 11:11:38;;;;;;;20.15;7.32;;;;;;;31.05;39.02;96379.75;5024118;28;20060;-60
2022/08/26 11:14:19;;;;;;;22.45;6.75;;;;;;;30.46;35.39;96304.91;5024262;28;20128;-65
2022/08/26 11:16:57;;;;;;;20.13;7.32;;;;;;;29.87;37.17;96305.06;5021319;28;20045;-63
2022/08/26 11:19:40;;;;;;;25.90;7.90;;;;;;;31.08;35.17;96383.66;5013666;28;20053;-62
2022/08/26 11:22:34;;;;;;;30.63;7.25;;;;;;;31.21;37.81;96383.88;5024400;28;20072;-63
2022/08/26 11:25:10;;;;;;;23.15;7.50;;;;;;;30.78;36.89;96327.00;5025100;28;20060;-70
2022/08/26 11:27:37;;;;;;;20.10;6.63;;;;;;;31.38;36.25;96378.97;5026836;28;20150;-60
2022/08/26 11:30:15;;;;;;;23.65;7.35;;;;;;;30.78;37.16;96383.41;5024938;28;20045;-60
2022/08/26 11:32:49;;;;;;;18.17;7.18;;;;;;;30.59;38.61;96359.47;5023918;28;20053;-69
2022/08/26 11:35:19;;;;;;;28.90;7.30;;;;;;;31.29;37.85;96376.31;5023133;28;20053;-59
2022/08/26 11:37:50;;;;;;;18.73;7.28;;;;;;;31.37;34.96;96377.38;5039210;28;20053;-60
2022/08/26 11:40:37;;;;;;;25.30;7.45;;;;;;;30.70;34.48;96262.22;5023489;28;20073;-62
2022/08/26 11:43:15;;;;;;;11.00;6.70;;;;;;;31.17;34.54;96386.25;5020780;28;20057;-63
2022/08/26 11:45:45;;;;;;;22.50;8.20;;;;;;;31.61;35.35;96366.91;5001349;28;20071;-62
2022/08/26 11:48:27;;;;;;;26.92;7.45;;;;;;;30.68;33.55;96367.81;5013026;28;20084;-62
2022/08/26 11:50:59;;;;;;;21.92;8.07;;;;;;;30.17;34.89;96368.22;5020959;28;20049;-64
2022/08/26 11:53:27;;;;;;;25.70;7.47;;;;;;;30.78;33.16;96384.19;5015550;28;20050;-61
2022/08/26 11:55:57;;;;;;;23.48;7.82;;;;;;;29.71;33.45;96274.41;5013849;28;20041;-65